Terminal Aerodrome Forecast
Issued by NWS

Home | Current Version | Previous Version | Text Only | Print | Product List | Glossary On
Versions: 1 2 3 4 5 6 7 8 9 10 11 12
000
FTUS44 KOUN 240520
TAFPNC
TAF
KPNC 240520Z 2406/2506 33018G28KT P6SM BKN015
     FM241200 33016G24KT P6SM SCT025
      TEMPO 2412/2415 BKN025
     FM242300 35012KT P6SM SCT150=

USA.gov is the U.S. government's official web portal to all federal, state and local government web resources and services.